createdAt,value
2017-11-08T00:02:18.833Z,72.90
2017-11-08T00:04:46.348Z,73.10
2017-11-08T00:07:14.636Z,73.00
2017-11-08T00:09:42.193Z,73.00
2017-11-08T00:12:10.473Z,73.20
2017-11-08T00:14:38.803Z,73.30
2017-11-08T00:17:08.170Z,73.30
2017-11-08T00:19:35.978Z,73.40
2017-11-08T00:22:18.197Z,73.30
2017-11-08T00:24:46.124Z,73.30
2017-11-08T00:27:13.645Z,73.10
2017-11-08T00:29:41.161Z,73.00
2017-11-08T00:32:08.731Z,73.00
2017-11-08T00:34:36.975Z,73.00
2017-11-08T00:37:04.523Z,73.00
2017-11-08T00:39:32.035Z,73.00
2017-11-08T00:41:59.830Z,73.10
2017-11-08T00:44:27.347Z,73.10
2017-11-08T00:46:54.875Z,73.00
2017-11-08T00:49:22.453Z,73.00
2017-11-08T00:51:51.909Z,73.00
2017-11-08T00:54:19.461Z,73.00
2017-11-08T00:56:46.994Z,73.70
2017-11-08T00:59:14.790Z,73.00
2017-11-08T01:01:42.307Z,72.80
2017-11-08T01:04:09.809Z,72.90
2017-11-08T01:06:37.352Z,72.80
2017-11-08T01:09:05.805Z,72.90
2017-11-08T01:11:33.762Z,72.80
2017-11-08T01:14:01.273Z,73.00
2017-11-08T01:16:28.783Z,73.00
2017-11-08T01:18:56.357Z,73.00
2017-11-08T01:21:23.896Z,73.00
2017-11-08T01:23:51.783Z,73.10
2017-11-08T01:26:20.068Z,73.10
2017-11-08T01:28:47.578Z,73.00
2017-11-08T01:31:15.114Z,73.00
2017-11-08T01:33:44.466Z,73.00
2017-11-08T01:36:12.016Z,72.90
2017-11-08T01:41:32.042Z,72.70
2017-11-08T01:43:59.563Z,72.60
2017-11-08T01:46:27.066Z,72.70
2017-11-08T01:48:54.602Z,72.70
2017-11-08T01:51:22.889Z,72.70
2017-11-08T01:53:50.429Z,72.60
2017-11-08T01:56:17.969Z,72.70
2017-11-08T01:58:45.762Z,72.80
2017-11-08T02:01:13.273Z,72.80
2017-11-08T02:03:40.772Z,72.80
2017-11-08T02:06:08.316Z,73.00
2017-11-08T02:08:35.830Z,73.10
2017-11-08T02:11:03.372Z,73.20
2017-11-08T02:13:30.894Z,73.20
2017-11-08T02:15:58.803Z,73.20
2017-11-08T02:18:26.318Z,73.10
2017-11-08T02:20:53.861Z,73.10
2017-11-08T02:23:21.392Z,73.20
2017-11-08T02:25:48.929Z,73.20
2017-11-08T02:28:18.025Z,73.20
2017-11-08T02:30:46.355Z,73.30
2017-11-08T02:33:15.039Z,73.30
2017-11-08T02:35:42.543Z,73.40
2017-11-08T02:38:10.053Z,73.50
2017-11-08T02:40:37.626Z,73.50
2017-11-08T02:43:11.829Z,73.60
2017-11-08T02:45:48.898Z,73.60
2017-11-08T02:48:16.403Z,73.60
2017-11-08T02:50:44.210Z,73.60
2017-11-08T02:53:11.743Z,73.60
2017-11-08T02:55:42.083Z,73.60
2017-11-08T02:58:11.377Z,73.50
2017-11-08T03:00:39.670Z,73.50
2017-11-08T03:03:11.559Z,73.40
2017-11-08T03:05:39.061Z,73.50
2017-11-08T03:08:06.606Z,73.40
2017-11-08T03:10:34.153Z,73.20
2017-11-08T03:13:01.974Z,73.30
2017-11-08T03:15:30.254Z,73.30
2017-11-08T03:17:58.522Z,73.20
2017-11-08T03:20:26.841Z,73.20
2017-11-08T03:22:54.348Z,73.20
2017-11-08T03:25:21.946Z,73.20
2017-11-08T03:27:49.482Z,73.90
2017-11-08T03:30:18.105Z,73.80
2017-11-08T03:32:45.629Z,73.00
2017-11-08T03:35:13.910Z,73.00
2017-11-08T03:37:42.214Z,73.00
2017-11-08T03:40:09.747Z,73.10
2017-11-08T03:42:38.119Z,73.00
2017-11-08T03:45:06.394Z,73.00
2017-11-08T03:47:34.194Z,73.50
2017-11-08T03:50:01.712Z,73.20
2017-11-08T03:52:29.720Z,73.20
2017-11-08T03:54:57.248Z,73.30
2017-11-08T03:57:25.530Z,74.20
2017-11-08T03:59:53.840Z,73.50
2017-11-08T04:02:21.355Z,73.50
2017-11-08T04:04:49.907Z,73.60
2017-11-08T04:07:17.422Z,73.60
2017-11-08T04:09:45.689Z,73.60
2017-11-08T04:12:13.997Z,73.40
2017-11-08T04:14:41.521Z,73.50
2017-11-08T04:17:09.202Z,73.50
2017-11-08T04:19:36.729Z,73.50
2017-11-08T04:22:04.578Z,73.40
2017-11-08T04:24:32.081Z,73.50
2017-11-08T04:27:00.357Z,73.60
2017-11-08T04:29:31.898Z,73.60
2017-11-08T04:31:59.403Z,73.50
2017-11-08T04:34:26.939Z,73.50
2017-11-08T04:36:55.335Z,73.40
2017-11-08T04:39:23.182Z,73.40
2017-11-08T04:41:50.699Z,73.40
2017-11-08T04:44:18.203Z,73.20
2017-11-08T04:46:46.497Z,73.00
2017-11-08T04:49:14.017Z,73.10
2017-11-08T04:51:41.782Z,73.00
2017-11-08T04:54:09.290Z,72.90
2017-11-08T04:56:38.069Z,72.90
2017-11-08T04:59:05.581Z,73.00
2017-11-08T05:01:33.100Z,73.10
2017-11-08T05:04:00.625Z,73.00
2017-11-08T05:06:28.152Z,73.10
2017-11-08T05:08:55.702Z,73.10
2017-11-08T05:11:23.209Z,73.20
2017-11-08T05:13:51.521Z,73.30
2017-11-08T05:16:19.034Z,73.40
2017-11-08T05:18:46.603Z,73.30
2017-11-08T05:21:14.902Z,73.50
2017-11-08T05:23:42.683Z,73.40
2017-11-08T05:26:10.201Z,73.40
2017-11-08T05:28:37.855Z,73.40
2017-11-08T05:31:05.405Z,73.40
2017-11-08T05:33:32.922Z,73.50
2017-11-08T05:36:00.458Z,73.60
2017-11-08T05:38:27.963Z,73.50
2017-11-08T05:40:55.489Z,73.60
2017-11-08T05:43:22.996Z,74.40
2017-11-08T05:45:50.837Z,73.80
2017-11-08T05:48:18.375Z,73.60
2017-11-08T05:50:45.907Z,73.70
2017-11-08T05:53:13.488Z,73.60
2017-11-08T05:55:41.014Z,73.60
2017-11-08T05:58:08.854Z,73.60
2017-11-08T06:00:36.358Z,73.60
2017-11-08T06:05:43.459Z,74.30
2017-11-08T06:08:11.098Z,74.00
2017-11-08T06:10:38.662Z,74.00
2017-11-08T06:13:06.175Z,74.00
2017-11-08T06:15:34.059Z,74.00
2017-11-08T06:18:01.603Z,74.00
2017-11-08T06:20:29.701Z,74.00
2017-11-08T06:22:57.253Z,74.10
2017-11-08T06:25:24.794Z,74.20
2017-11-08T06:27:52.357Z,74.10
2017-11-08T06:30:19.872Z,74.30
2017-11-08T06:32:47.792Z,74.20
2017-11-08T06:35:15.309Z,74.20
2017-11-08T06:37:42.835Z,74.30
2017-11-08T06:40:10.400Z,74.40
2017-11-08T06:42:37.935Z,74.40
2017-11-08T06:45:05.492Z,74.30
2017-11-08T06:47:33.003Z,74.40
2017-11-08T06:50:00.829Z,74.20
2017-11-08T06:52:28.357Z,74.30
2017-11-08T06:54:56.651Z,74.30
2017-11-08T06:57:24.212Z,74.40
2017-11-08T06:59:52.865Z,74.10
2017-11-08T07:02:20.407Z,74.20
2017-11-08T07:04:47.918Z,74.30
2017-11-08T07:07:15.429Z,74.10
2017-11-08T07:09:42.957Z,74.10
2017-11-08T07:12:10.554Z,74.10
2017-11-08T07:14:38.170Z,74.20
2017-11-08T07:17:05.693Z,74.10
2017-11-08T07:19:33.995Z,73.90
2017-11-08T07:22:01.540Z,73.80
2017-11-08T07:24:29.825Z,73.90
2017-11-08T07:26:58.127Z,73.80
2017-11-08T07:29:25.690Z,73.90
2017-11-08T07:31:53.209Z,74.00
2017-11-08T07:34:21.527Z,74.00
2017-11-08T07:36:49.091Z,74.00
2017-11-08T07:39:17.160Z,73.90
2017-11-08T07:41:44.684Z,74.60
2017-11-08T07:44:13.291Z,73.70
2017-11-08T07:46:40.812Z,73.80
2017-11-08T07:49:08.345Z,73.70
2017-11-08T07:51:35.870Z,73.60
2017-11-08T07:54:09.277Z,73.50
2017-11-08T07:56:36.829Z,73.30
2017-11-08T07:59:04.342Z,73.20
2017-11-08T08:01:31.919Z,73.10
2017-11-08T08:04:00.229Z,72.90
2017-11-08T08:06:28.777Z,72.90
2017-11-08T08:08:56.750Z,72.80
2017-11-08T08:11:25.061Z,71.40
2017-11-08T08:13:52.663Z,71.40
2017-11-08T08:16:20.202Z,71.40
2017-11-08T08:18:47.758Z,71.40
2017-11-08T08:21:16.074Z,71.40
2017-11-08T08:23:43.932Z,71.30
2017-11-08T08:26:11.446Z,71.10
2017-11-08T08:28:38.966Z,71.10
2017-11-08T08:31:06.507Z,70.90
2017-11-08T08:33:34.060Z,71.00
2017-11-08T08:36:01.623Z,70.90
2017-11-08T08:38:29.126Z,70.90
2017-11-08T08:40:57.958Z,70.50
2017-11-08T08:43:25.489Z,70.60
2017-11-08T08:45:53.010Z,70.40
2017-11-08T08:48:20.550Z,70.10
2017-11-08T08:50:49.121Z,70.10
2017-11-08T08:53:16.695Z,70.00
2017-11-08T08:55:44.253Z,69.90
2017-11-08T08:58:11.771Z,69.90
2017-11-08T09:00:39.682Z,69.90
2017-11-08T09:03:07.907Z,69.80
2017-11-08T09:05:36.744Z,69.50
2017-11-08T09:08:04.287Z,69.40
2017-11-08T09:10:31.816Z,69.40
2017-11-08T09:13:00.547Z,69.30
2017-11-08T09:15:28.056Z,69.30
2017-11-08T09:17:55.558Z,69.30
2017-11-08T09:20:26.861Z,69.20
2017-11-08T09:22:55.129Z,69.20
2017-11-08T09:25:37.170Z,69.20
2017-11-08T09:28:04.683Z,69.20
2017-11-08T09:30:33.269Z,68.70
2017-11-08T09:33:00.806Z,68.80
2017-11-08T09:35:28.333Z,68.60
2017-11-08T09:38:01.454Z,68.50
2017-11-08T09:40:30.812Z,68.40
2017-11-08T09:42:59.116Z,68.10
2017-11-08T09:45:26.624Z,68.10
2017-11-08T09:47:54.458Z,68.10
2017-11-08T09:50:21.964Z,68.00
2017-11-08T09:52:50.328Z,67.70
2017-11-08T09:55:17.885Z,67.80
2017-11-08T09:57:45.405Z,67.80
2017-11-08T10:00:12.941Z,67.50
2017-11-08T10:02:41.219Z,67.20
2017-11-08T10:05:09.275Z,67.20
2017-11-08T10:07:37.590Z,67.20
2017-11-08T10:10:05.104Z,67.10
2017-11-08T10:12:33.437Z,67.30
2017-11-08T10:15:00.979Z,67.20
2017-11-08T10:17:28.553Z,67.20
2017-11-08T10:19:58.017Z,67.20
2017-11-08T10:22:26.790Z,67.30
2017-11-08T10:24:54.332Z,67.80
2017-11-08T10:27:21.858Z,67.00
2017-11-08T10:29:49.436Z,66.90
2017-11-08T10:32:19.877Z,66.90
2017-11-08T10:34:47.435Z,66.90
2017-11-08T10:37:15.050Z,66.80
2017-11-08T10:39:42.966Z,66.70
2017-11-08T10:42:10.439Z,66.50
2017-11-08T10:44:38.723Z,66.30
2017-11-08T10:47:07.041Z,66.30
2017-11-08T10:49:36.431Z,66.30
2017-11-08T10:52:04.236Z,66.40
2017-11-08T10:54:31.781Z,66.40
2017-11-08T10:56:59.322Z,66.50
2017-11-08T10:59:27.763Z,66.40
2017-11-08T11:01:56.056Z,66.30
2017-11-08T11:04:24.676Z,66.30
2017-11-08T11:06:52.344Z,66.30
2017-11-08T11:09:22.780Z,66.40
2017-11-08T11:11:50.323Z,66.50
2017-11-08T11:14:18.621Z,66.50
2017-11-08T11:16:46.166Z,66.50
2017-11-08T11:19:13.704Z,66.70
2017-11-08T11:21:41.595Z,66.60
2017-11-08T11:24:12.955Z,66.70
2017-11-08T11:26:41.769Z,66.60
2017-11-08T11:29:11.702Z,66.40
2017-11-08T11:31:40.004Z,66.50
2017-11-08T11:34:07.578Z,66.50
2017-11-08T11:36:35.121Z,66.10
2017-11-08T11:39:03.641Z,65.70
2017-11-08T11:41:31.199Z,65.70
2017-11-08T11:43:59.186Z,65.70
2017-11-08T11:46:27.242Z,65.70
2017-11-08T11:48:54.768Z,65.90
2017-11-08T11:51:25.751Z,65.60
2017-11-08T11:53:53.296Z,65.60
2017-11-08T11:56:20.839Z,65.70
2017-11-08T11:58:48.440Z,65.60
2017-11-08T12:01:16.237Z,65.50
2017-11-08T12:03:43.772Z,65.50
2017-11-08T12:06:11.281Z,65.50
2017-11-08T12:08:40.176Z,65.70
2017-11-08T12:11:08.536Z,65.80
2017-11-08T12:13:36.869Z,65.90
2017-11-08T12:16:04.399Z,65.90
2017-11-08T12:18:32.214Z,65.90
2017-11-08T12:20:59.775Z,65.90
2017-11-08T12:23:27.292Z,65.60
2017-11-08T12:25:54.967Z,65.40
2017-11-08T12:31:15.623Z,65.10
2017-11-08T12:33:44.434Z,65.10
2017-11-08T12:36:12.275Z,64.80
2017-11-08T12:38:39.819Z,65.00
2017-11-08T12:41:07.361Z,65.10
2017-11-08T12:43:34.930Z,65.10
2017-11-08T12:46:02.483Z,65.30
2017-11-08T12:48:30.056Z,65.20
2017-11-08T12:50:57.630Z,65.20
2017-11-08T12:53:25.595Z,65.10
2017-11-08T12:55:53.106Z,64.90
2017-11-08T12:58:21.399Z,64.70
2017-11-08T13:00:48.943Z,64.70
2017-11-08T13:03:16.478Z,65.00
2017-11-08T13:06:04.449Z,65.20
2017-11-08T13:08:32.941Z,65.20
2017-11-08T13:11:06.480Z,65.10
2017-11-08T13:13:34.149Z,65.10
2017-11-08T13:16:02.111Z,65.00
2017-11-08T13:18:29.683Z,65.10
2017-11-08T13:20:57.202Z,64.90
2017-11-08T13:23:25.519Z,64.70
2017-11-08T13:25:53.034Z,64.70
2017-11-08T13:28:21.615Z,64.90
2017-11-08T13:30:49.902Z,65.20
2017-11-08T13:33:18.183Z,65.20
2017-11-08T13:35:46.559Z,65.20
2017-11-08T13:38:28.344Z,65.30
2017-11-08T13:40:56.088Z,65.00
2017-11-08T13:43:25.070Z,65.50
2017-11-08T13:45:52.914Z,65.30
2017-11-08T13:48:20.455Z,65.30
2017-11-08T13:51:04.621Z,65.40
2017-11-08T13:59:40.055Z,65.70
2017-11-08T14:02:08.442Z,65.80
2017-11-08T14:04:36.496Z,65.90
2017-11-08T14:07:04.058Z,65.80
2017-11-08T14:09:33.925Z,65.80
2017-11-08T14:12:01.557Z,65.70
2017-11-08T14:14:29.100Z,65.80
2017-11-08T14:16:56.779Z,65.70
2017-11-08T14:19:25.287Z,65.80
2017-11-08T14:22:01.771Z,66.00
2017-11-08T14:24:29.323Z,66.30
2017-11-08T14:26:57.417Z,66.10
2017-11-08T14:29:25.044Z,66.00
2017-11-08T14:31:53.025Z,66.10
2017-11-08T14:34:20.688Z,66.00
2017-11-08T14:36:49.975Z,66.10
2017-11-08T14:39:18.415Z,65.80
2017-11-08T14:41:52.654Z,65.70
2017-11-08T14:44:20.949Z,65.40
2017-11-08T14:46:49.363Z,65.30
2017-11-08T14:49:16.953Z,65.20
2017-11-08T14:51:46.559Z,65.30
2017-11-08T14:54:14.787Z,65.30
2017-11-08T14:56:42.459Z,65.40
2017-11-08T14:59:10.061Z,65.20
2017-11-08T15:01:37.996Z,65.30
2017-11-08T15:04:05.535Z,65.20
2017-11-08T15:06:33.901Z,64.80
2017-11-08T15:09:01.641Z,64.80
2017-11-08T15:11:32.975Z,64.90
2017-11-08T15:14:05.414Z,65.00
2017-11-08T15:16:39.613Z,65.00
2017-11-08T15:24:37.240Z,65.20
2017-11-08T15:27:20.002Z,65.00
2017-11-08T15:29:54.573Z,66.00
2017-11-08T15:35:32.682Z,65.60
2017-11-08T15:38:01.570Z,65.60
2017-11-08T15:40:29.221Z,65.60
2017-11-08T15:45:58.113Z,66.60
2017-11-08T15:51:34.540Z,65.80
2017-11-08T15:54:16.532Z,66.10
2017-11-08T15:56:51.504Z,66.10
2017-11-08T15:59:53.340Z,66.00
2017-11-08T16:02:38.288Z,65.60
2017-11-08T16:05:09.277Z,66.20
2017-11-08T16:07:37.284Z,65.80
2017-11-08T16:10:11.025Z,65.80
2017-11-08T16:18:51.428Z,65.70
2017-11-08T16:26:08.672Z,65.90
2017-11-08T16:28:38.079Z,65.70
2017-11-08T16:31:05.666Z,65.50
2017-11-08T16:33:33.197Z,65.30
2017-11-08T16:39:01.790Z,65.80
2017-11-08T16:49:55.646Z,66.40
2017-11-08T16:52:23.326Z,65.80
2017-11-08T16:54:52.737Z,65.60
2017-11-08T16:57:45.963Z,65.80
2017-11-08T17:00:13.693Z,65.60
2017-11-08T17:02:41.648Z,65.80
2017-11-08T17:05:09.221Z,65.80
2017-11-08T17:07:36.802Z,65.50
2017-11-08T17:10:04.399Z,65.50
2017-11-08T17:12:32.044Z,65.50
2017-11-08T17:14:59.800Z,65.50
2017-11-08T17:17:28.273Z,65.70
2017-11-08T17:19:56.610Z,65.90
2017-11-08T17:22:24.488Z,65.90
2017-11-08T17:24:52.306Z,65.90
2017-11-08T17:27:21.477Z,65.70
2017-11-08T17:29:49.033Z,65.70
2017-11-08T17:32:17.552Z,65.70
2017-11-08T17:34:45.138Z,65.80
2017-11-08T17:37:13.863Z,65.80
2017-11-08T17:39:41.681Z,65.90
2017-11-08T17:42:12.288Z,65.70
2017-11-08T17:44:40.673Z,65.80
2017-11-08T17:47:10.034Z,66.20
2017-11-08T17:52:18.486Z,65.90
2017-11-08T18:08:34.329Z,65.40
2017-11-08T18:11:02.966Z,65.60
2017-11-08T18:13:30.561Z,65.60
2017-11-08T18:15:58.113Z,65.80
2017-11-08T18:18:25.692Z,66.50
2017-11-08T18:20:54.052Z,65.90
2017-11-08T18:23:21.632Z,65.90
2017-11-08T18:25:49.203Z,66.00
2017-11-08T18:28:18.505Z,65.90
2017-11-08T18:58:05.117Z,65.60
2017-11-08T19:00:32.701Z,65.70
2017-11-08T19:57:22.981Z,66.00
2017-11-08T19:59:50.866Z,65.90
2017-11-08T20:02:19.341Z,66.10
2017-11-08T20:04:46.880Z,66.10
2017-11-08T20:07:14.434Z,66.30
2017-11-08T20:09:42.045Z,66.30
2017-11-08T20:12:09.934Z,66.40
2017-11-08T20:14:37.520Z,66.40
2017-11-08T20:17:05.090Z,66.40
2017-11-08T20:19:32.647Z,66.70
2017-11-08T20:22:00.231Z,66.60
2017-11-08T20:24:27.814Z,66.60
2017-11-08T20:26:55.398Z,67.10
2017-11-08T20:29:23.243Z,67.00
2017-11-08T20:31:50.822Z,66.80
2017-11-08T20:34:18.380Z,66.60
2017-11-08T20:36:45.959Z,66.70
2017-11-08T20:39:14.292Z,66.60
2017-11-08T20:41:41.961Z,66.70
2017-11-08T20:44:09.499Z,66.70
2017-11-08T20:46:37.608Z,66.70
2017-11-08T20:49:05.246Z,66.60
2017-11-08T20:51:33.124Z,66.60
2017-11-08T20:54:00.788Z,66.50
2017-11-08T20:56:28.502Z,67.10
2017-11-08T20:58:56.123Z,67.20
2017-11-08T21:01:23.728Z,66.50
2017-11-08T21:03:51.729Z,66.50
2017-11-08T21:06:19.325Z,66.50
2017-11-08T21:08:47.661Z,66.40
2017-11-08T21:11:15.250Z,66.40
2017-11-08T21:13:42.931Z,66.50
2017-11-08T21:16:10.501Z,66.50
2017-11-08T21:18:38.074Z,66.40
2017-11-08T21:21:05.982Z,66.50
2017-11-08T21:23:33.515Z,66.50
2017-11-08T21:26:01.089Z,66.40
2017-11-08T21:28:28.688Z,66.50
2017-11-08T21:30:56.244Z,66.50
2017-11-08T21:33:27.402Z,66.50
2017-11-08T21:35:54.956Z,66.50
2017-11-08T21:38:22.981Z,67.60
2017-11-08T21:40:51.359Z,67.50
2017-11-08T21:43:18.949Z,67.50
2017-11-08T21:45:46.569Z,67.60
2017-11-08T21:48:14.869Z,67.60
2017-11-08T21:50:42.511Z,67.60
2017-11-08T21:53:10.087Z,67.80
2017-11-08T21:55:37.957Z,67.80
2017-11-08T21:58:05.598Z,67.90
2017-11-08T22:00:33.144Z,68.00
2017-11-08T22:03:01.509Z,67.90
2017-11-08T22:05:29.049Z,67.90
2017-11-08T22:07:56.658Z,68.00
2017-11-08T22:10:24.993Z,68.00
2017-11-08T22:12:53.250Z,68.00
2017-11-08T22:15:21.195Z,67.90
2017-11-08T22:17:48.840Z,68.10
2017-11-08T22:20:17.649Z,67.90
2017-11-08T22:22:52.751Z,68.00
2017-11-08T22:25:21.655Z,68.00
2017-11-08T22:27:49.268Z,67.90
2017-11-08T22:30:17.431Z,68.10
2017-11-08T22:32:45.384Z,68.20
2017-11-08T22:35:13.037Z,68.30
2017-11-08T22:37:40.879Z,68.30
2017-11-08T22:40:08.667Z,68.30
2017-11-08T22:42:37.054Z,68.30
2017-11-08T22:45:05.358Z,68.30
2017-11-08T22:47:33.309Z,69.20
2017-11-08T22:50:00.960Z,68.40
2017-11-08T22:52:29.259Z,68.30
2017-11-08T22:54:57.756Z,68.20
2017-11-08T22:57:25.530Z,68.40
2017-11-08T22:59:53.129Z,68.50
2017-11-08T23:02:20.789Z,68.40
2017-11-08T23:04:49.130Z,68.40
2017-11-08T23:07:17.060Z,68.30
2017-11-08T23:09:45.584Z,68.50
2017-11-08T23:12:13.484Z,68.50
2017-11-08T23:14:41.067Z,68.40
2017-11-08T23:17:09.541Z,68.40
2017-11-08T23:19:37.985Z,68.40
2017-11-08T23:22:05.925Z,68.50
2017-11-08T23:24:34.215Z,69.20
2017-11-08T23:27:01.724Z,68.70
2017-11-08T23:29:30.052Z,68.80
2017-11-08T23:31:57.618Z,68.90
2017-11-08T23:34:25.187Z,68.80
2017-11-08T23:36:52.832Z,68.90
2017-11-08T23:39:20.723Z,68.80
2017-11-08T23:41:48.423Z,69.00
2017-11-08T23:44:16.189Z,69.00
2017-11-08T23:46:44.183Z,69.00
2017-11-08T23:49:11.818Z,69.10
2017-11-08T23:51:39.534Z,69.10
2017-11-08T23:54:07.310Z,69.10
2017-11-08T23:56:35.692Z,69.20
2017-11-08T23:59:09.259Z,69.20
